createdAt,value
2018-08-18T00:00:00.029Z,2.20
2018-08-18T00:02:29.318Z,1.67
2018-08-18T00:04:57.465Z,3.73
2018-08-18T00:07:25.639Z,1.80
2018-08-18T00:09:53.764Z,2.23
2018-08-18T00:12:29.937Z,1.83
2018-08-18T00:14:58.154Z,2.93
2018-08-18T00:17:26.444Z,2.50
2018-08-18T00:19:56.926Z,3.00
2018-08-18T00:22:25.776Z,5.17
2018-08-18T00:24:57.205Z,1.60
2018-08-18T00:27:25.919Z,1.60
2018-08-18T00:29:58.732Z,3.10
2018-08-18T00:32:27.022Z,4.23
2018-08-18T00:34:55.292Z,2.23
2018-08-18T00:37:24.666Z,1.70
2018-08-18T00:39:53.908Z,2.60
2018-08-18T00:42:22.600Z,7.27
2018-08-18T00:44:50.726Z,1.77
2018-08-18T00:47:18.901Z,2.03
2018-08-18T00:49:47.204Z,2.53
2018-08-18T00:52:15.627Z,2.13
2018-08-18T00:54:43.840Z,2.00
2018-08-18T00:57:24.360Z,2.30
2018-08-18T00:59:53.617Z,1.97
2018-08-18T01:02:23.304Z,4.23
2018-08-18T01:04:58.761Z,2.70
2018-08-18T01:07:27.654Z,2.97
2018-08-18T01:09:57.304Z,5.53
2018-08-18T01:12:28.031Z,2.13
2018-08-18T01:14:56.979Z,6.60
2018-08-18T01:17:25.430Z,5.63
2018-08-18T01:19:55.598Z,6.60
2018-08-18T01:22:23.696Z,3.13
2018-08-18T01:24:53.138Z,2.40
2018-08-18T01:27:21.509Z,5.60
2018-08-18T01:30:06.203Z,2.90
2018-08-18T01:32:34.868Z,4.13
2018-08-18T01:35:04.082Z,3.77
2018-08-18T01:37:32.459Z,3.40
2018-08-18T01:40:01.116Z,3.23
2018-08-18T01:42:32.118Z,2.23
2018-08-18T01:45:00.421Z,3.53
2018-08-18T01:47:30.068Z,2.33
2018-08-18T01:50:05.752Z,1.93
2018-08-18T01:52:34.964Z,2.17
2018-08-18T01:55:03.118Z,2.07
2018-08-18T01:57:32.126Z,4.20
2018-08-18T02:00:06.240Z,1.77
2018-08-18T02:02:36.770Z,5.27
2018-08-18T02:05:17.198Z,2.20
2018-08-18T02:07:45.378Z,2.73
2018-08-18T02:10:15.005Z,1.87
2018-08-18T02:12:55.158Z,5.13
2018-08-18T02:15:23.288Z,3.33
2018-08-18T02:17:52.040Z,3.70
2018-08-18T02:20:22.775Z,3.53
2018-08-18T02:22:51.528Z,6.53
2018-08-18T02:25:19.670Z,2.63
2018-08-18T02:27:47.969Z,3.60
2018-08-18T02:30:18.455Z,3.63
2018-08-18T02:32:46.606Z,2.60
2018-08-18T02:35:16.030Z,2.37
2018-08-18T02:37:44.337Z,2.60
2018-08-18T02:40:15.756Z,2.57
2018-08-18T02:42:43.825Z,4.03
2018-08-18T02:45:13.626Z,5.03
2018-08-18T02:47:41.914Z,3.63
2018-08-18T02:50:11.316Z,3.70
2018-08-18T02:52:42.902Z,2.40
2018-08-18T02:55:13.219Z,3.03
2018-08-18T02:57:42.590Z,3.10
2018-08-18T03:00:19.839Z,4.50
2018-08-18T03:02:48.256Z,3.93
2018-08-18T03:05:17.960Z,6.43
2018-08-18T03:07:48.994Z,3.97
2018-08-18T03:10:22.436Z,8.23
2018-08-18T03:12:50.866Z,11.70
2018-08-18T03:15:33.955Z,3.00
2018-08-18T03:18:02.096Z,3.83
2018-08-18T03:20:30.217Z,8.83
2018-08-18T03:22:58.310Z,8.90
2018-08-18T03:25:38.147Z,4.93
2018-08-18T03:28:07.860Z,5.70
2018-08-18T03:30:36.022Z,8.23
2018-08-18T03:33:04.512Z,6.20
2018-08-18T03:35:32.730Z,5.70
2018-08-18T03:38:02.291Z,7.93
2018-08-18T03:40:31.137Z,6.27
2018-08-18T03:42:59.235Z,4.57
2018-08-18T03:45:27.431Z,4.43
2018-08-18T03:47:55.860Z,3.13
2018-08-18T03:50:28.881Z,5.83
2018-08-18T03:52:57.538Z,7.10
2018-08-18T03:55:36.529Z,5.20
2018-08-18T03:58:04.706Z,8.10
2018-08-18T04:00:32.967Z,4.93
2018-08-18T04:03:02.836Z,9.73
2018-08-18T04:05:30.994Z,8.07
2018-08-18T04:07:59.140Z,5.17
2018-08-18T04:10:28.094Z,5.73
2018-08-18T04:12:57.735Z,5.70
2018-08-18T04:15:25.935Z,3.33
2018-08-18T04:17:54.021Z,7.33
2018-08-18T04:20:22.158Z,11.67
2018-08-18T04:22:52.755Z,8.83
2018-08-18T04:25:22.424Z,4.33
2018-08-18T04:27:50.571Z,3.70
2018-08-18T04:30:20.745Z,4.83
2018-08-18T04:32:57.085Z,6.13
2018-08-18T04:35:26.506Z,4.40
2018-08-18T04:37:56.355Z,4.10
2018-08-18T04:40:25.102Z,5.03
2018-08-18T04:42:55.224Z,5.27
2018-08-18T04:45:23.334Z,3.73
2018-08-18T04:47:52.810Z,3.47
2018-08-18T04:50:22.183Z,3.50
2018-08-18T04:52:51.640Z,6.13
2018-08-18T04:55:20.105Z,5.30
2018-08-18T04:57:48.284Z,6.80
2018-08-18T05:00:17.106Z,5.27
2018-08-18T05:02:50.633Z,6.50
2018-08-18T05:05:22.012Z,4.33
2018-08-18T05:07:52.126Z,5.13
2018-08-18T05:10:21.688Z,5.37
2018-08-18T05:12:50.024Z,5.87
2018-08-18T05:15:19.885Z,3.20
2018-08-18T05:17:49.406Z,4.90
2018-08-18T05:20:20.244Z,3.70
2018-08-18T05:22:48.370Z,4.57
2018-08-18T05:25:17.615Z,7.80
2018-08-18T05:27:45.806Z,6.00
2018-08-18T05:30:13.972Z,5.80
2018-08-18T05:32:42.098Z,8.83
2018-08-18T05:35:10.250Z,3.80
2018-08-18T05:37:38.437Z,6.07
2018-08-18T05:40:07.225Z,7.23
2018-08-18T05:42:36.187Z,3.07
2018-08-18T05:45:20.972Z,3.93
2018-08-18T05:47:49.328Z,9.80
2018-08-18T05:50:17.543Z,7.57
2018-08-18T05:52:45.805Z,4.70
2018-08-18T05:55:14.196Z,4.23
2018-08-18T05:57:42.428Z,4.30
2018-08-18T06:00:16.745Z,6.00
2018-08-18T06:02:50.456Z,7.40
2018-08-18T06:05:19.492Z,3.47
2018-08-18T06:07:47.726Z,7.27
2018-08-18T06:10:15.949Z,8.87
2018-08-18T06:12:44.206Z,5.07
2018-08-18T06:15:12.426Z,6.97
2018-08-18T06:17:41.548Z,5.77
2018-08-18T06:20:09.895Z,4.47
2018-08-18T06:22:38.188Z,5.73
2018-08-18T06:25:06.516Z,7.17
2018-08-18T06:27:34.657Z,6.63
2018-08-18T06:30:02.861Z,3.40
2018-08-18T06:32:31.126Z,4.30
2018-08-18T06:34:59.330Z,3.40
2018-08-18T06:37:28.638Z,4.33
2018-08-18T06:39:58.618Z,6.63
2018-08-18T06:42:31.316Z,5.50
2018-08-18T06:44:59.461Z,3.93
2018-08-18T06:47:27.923Z,4.33
2018-08-18T06:49:56.059Z,5.03
2018-08-18T06:52:24.492Z,6.97
2018-08-18T06:54:54.704Z,4.43
2018-08-18T06:57:34.470Z,9.17
2018-08-18T07:00:08.790Z,1.60
2018-08-18T07:02:37.332Z,6.57
2018-08-18T07:05:07.912Z,11.77
2018-08-18T07:07:36.336Z,4.10
2018-08-18T07:10:36.827Z,6.43
2018-08-18T07:13:06.932Z,3.83
2018-08-18T07:15:36.992Z,8.23
2018-08-18T07:18:06.896Z,2.40
2018-08-18T07:20:35.023Z,3.03
2018-08-18T07:23:04.120Z,2.73
2018-08-18T07:25:32.360Z,3.70
2018-08-18T07:28:05.869Z,5.30
2018-08-18T07:30:34.078Z,4.97
2018-08-18T07:33:03.268Z,4.50
2018-08-18T07:35:31.339Z,5.90
2018-08-18T07:37:59.419Z,3.10
2018-08-18T07:41:01.108Z,2.67
2018-08-18T07:43:30.577Z,6.57
2018-08-18T07:46:00.410Z,7.50
2018-08-18T07:48:28.671Z,5.50
2018-08-18T07:50:56.823Z,5.30
2018-08-18T07:53:24.951Z,3.90
2018-08-18T07:55:53.268Z,6.63
2018-08-18T07:58:22.686Z,2.10
2018-08-18T08:00:50.848Z,2.33
2018-08-18T08:03:19.653Z,18.77
2018-08-18T08:05:47.864Z,6.90
2018-08-18T08:08:15.940Z,2.37
2018-08-18T08:10:44.074Z,2.43
2018-08-18T08:13:13.444Z,2.30
2018-08-18T08:15:41.722Z,7.40
2018-08-18T08:18:12.856Z,4.77
2018-08-18T08:20:40.922Z,4.00
2018-08-18T08:23:09.074Z,4.40
2018-08-18T08:25:37.274Z,4.20
2018-08-18T08:28:05.430Z,1.57
2018-08-18T08:30:33.718Z,2.47
2018-08-18T08:33:02.342Z,9.23
2018-08-18T08:35:30.642Z,3.10
2018-08-18T08:37:58.943Z,3.70
2018-08-18T08:40:27.113Z,8.03
2018-08-18T08:42:55.422Z,1.97
2018-08-18T08:45:24.136Z,2.77
2018-08-18T08:47:52.298Z,4.77
2018-08-18T08:50:22.487Z,4.73
2018-08-18T08:52:54.799Z,6.20
2018-08-18T08:55:24.267Z,4.37
2018-08-18T08:57:52.397Z,3.10
2018-08-18T09:00:20.559Z,3.93
2018-08-18T09:02:49.656Z,4.93
2018-08-18T09:05:18.199Z,4.33
2018-08-18T09:07:46.358Z,2.90
2018-08-18T09:10:14.694Z,10.07
2018-08-18T09:12:42.922Z,6.30
2018-08-18T09:15:12.323Z,4.80
2018-08-18T09:17:40.509Z,4.03
2018-08-18T09:20:10.754Z,3.60
2018-08-18T09:22:50.319Z,2.33
2018-08-18T09:25:18.452Z,1.50
2018-08-18T09:27:56.112Z,2.10
2018-08-18T09:30:25.730Z,2.83
2018-08-18T09:32:53.909Z,3.13
2018-08-18T09:35:22.019Z,7.30
2018-08-18T09:37:54.476Z,2.77
2018-08-18T09:40:22.661Z,3.43
2018-08-18T09:42:50.784Z,5.47
2018-08-18T09:45:19.131Z,4.97
2018-08-18T09:47:47.257Z,2.67
2018-08-18T09:50:15.591Z,3.13
2018-08-18T09:52:43.806Z,2.80
2018-08-18T09:55:11.974Z,2.93
2018-08-18T09:57:40.184Z,6.73
2018-08-18T10:00:12.905Z,1.80
2018-08-18T10:02:41.242Z,2.70
2018-08-18T10:05:09.413Z,3.37
2018-08-18T10:07:37.783Z,6.00
2018-08-18T10:10:07.106Z,7.90
2018-08-18T10:12:35.284Z,5.40
2018-08-18T10:15:03.749Z,2.50
2018-08-18T10:17:31.898Z,4.10
2018-08-18T10:20:00.624Z,3.43
2018-08-18T10:22:28.768Z,6.93
2018-08-18T10:24:57.018Z,7.30
2018-08-18T10:27:25.347Z,10.70
2018-08-18T10:29:53.505Z,4.50
2018-08-18T10:32:21.655Z,4.03
2018-08-18T10:34:50.093Z,7.23
2018-08-18T10:37:18.239Z,4.73
2018-08-18T10:39:46.514Z,3.97
2018-08-18T10:42:17.005Z,3.27
2018-08-18T10:44:51.328Z,3.33
2018-08-18T10:47:22.642Z,9.30
2018-08-18T10:50:02.356Z,2.27
2018-08-18T10:52:42.339Z,2.47
2018-08-18T10:55:11.710Z,2.17
2018-08-18T10:59:20.444Z,2.90
2018-08-18T11:02:02.091Z,5.93
2018-08-18T11:04:32.792Z,5.70
2018-08-18T11:07:01.041Z,5.90
2018-08-18T11:09:30.048Z,7.27
2018-08-18T11:11:58.234Z,9.23
2018-08-18T11:14:26.284Z,6.17
2018-08-18T11:16:54.392Z,3.80
2018-08-18T11:19:22.828Z,6.17
2018-08-18T11:22:02.578Z,8.00
2018-08-18T11:24:30.838Z,2.60
2018-08-18T11:26:59.024Z,4.70
2018-08-18T11:29:27.190Z,3.60
2018-08-18T11:31:55.396Z,3.90
2018-08-18T11:34:23.506Z,5.27
2018-08-18T11:37:01.854Z,14.57
2018-08-18T11:39:31.071Z,4.13
2018-08-18T11:41:59.801Z,4.77
2018-08-18T11:44:28.152Z,5.40
2018-08-18T11:46:56.419Z,4.47
2018-08-18T11:49:24.710Z,8.57
2018-08-18T11:51:54.680Z,5.23
2018-08-18T11:54:22.856Z,6.37
2018-08-18T11:56:52.892Z,7.47
2018-08-18T11:59:21.033Z,9.53
2018-08-18T12:01:51.115Z,2.30
2018-08-18T12:04:20.954Z,3.07
2018-08-18T12:06:54.729Z,5.07
2018-08-18T12:09:23.120Z,3.03
2018-08-18T12:11:51.648Z,2.67
2018-08-18T12:14:20.108Z,5.53
2018-08-18T12:16:48.245Z,2.90
2018-08-18T12:19:16.391Z,8.63
2018-08-18T12:21:46.503Z,4.20
2018-08-18T12:24:16.916Z,7.17
2018-08-18T12:26:56.655Z,5.30
2018-08-18T12:29:24.879Z,6.27
2018-08-18T12:31:52.942Z,6.40
2018-08-18T12:34:22.360Z,4.00
2018-08-18T12:36:50.632Z,5.20
2018-08-18T12:39:18.866Z,3.57
2018-08-18T12:41:47.067Z,4.97
2018-08-18T12:44:15.464Z,4.00
2018-08-18T12:46:48.713Z,4.10
2018-08-18T12:49:16.835Z,5.40
2018-08-18T12:51:45.260Z,5.13
2018-08-18T12:54:13.435Z,6.50
2018-08-18T12:56:43.017Z,4.00
2018-08-18T12:59:11.145Z,6.27
2018-08-18T13:01:41.789Z,8.87
2018-08-18T13:04:11.850Z,3.67
2018-08-18T13:06:42.957Z,3.20
2018-08-18T13:09:12.893Z,3.30
2018-08-18T13:11:41.647Z,5.17
2018-08-18T13:14:09.821Z,5.80
2018-08-18T13:16:38.217Z,6.53
2018-08-18T13:19:07.477Z,5.23
2018-08-18T13:21:35.624Z,4.00
2018-08-18T13:24:03.911Z,3.50
2018-08-18T13:26:32.231Z,3.83
2018-08-18T13:29:00.391Z,3.67
2018-08-18T13:31:32.885Z,9.93
2018-08-18T13:34:00.983Z,8.43
2018-08-18T13:36:29.110Z,7.00
2018-08-18T13:38:58.249Z,17.03
2018-08-18T13:41:26.541Z,11.63
2018-08-18T13:43:54.715Z,14.47
2018-08-18T13:46:34.398Z,5.13
2018-08-18T13:49:03.524Z,4.43
2018-08-18T13:51:32.250Z,8.20
2018-08-18T13:54:03.398Z,7.43
2018-08-18T13:56:31.960Z,7.40
2018-08-18T13:59:00.144Z,3.87
2018-08-18T14:01:33.452Z,5.60
2018-08-18T14:04:01.607Z,4.57
2018-08-18T14:06:31.954Z,6.53
2018-08-18T14:09:00.922Z,6.87
2018-08-18T14:11:29.892Z,4.60
2018-08-18T14:13:59.966Z,4.53
2018-08-18T14:16:29.149Z,10.53
2018-08-18T14:18:57.519Z,4.13
2018-08-18T14:21:25.729Z,11.60
2018-08-18T14:23:53.880Z,4.37
2018-08-18T14:26:22.124Z,5.97
2018-08-18T14:28:50.295Z,3.20
2018-08-18T14:31:18.442Z,9.77
2018-08-18T14:33:47.013Z,3.53
2018-08-18T14:36:17.644Z,9.07
2018-08-18T14:38:46.808Z,3.70
2018-08-18T14:41:18.870Z,7.00
2018-08-18T14:43:47.065Z,5.10
2018-08-18T14:46:15.713Z,7.50
2018-08-18T14:48:43.797Z,7.63
2018-08-18T14:51:12.554Z,8.40
2018-08-18T14:53:41.290Z,6.17
2018-08-18T14:56:09.519Z,5.40
2018-08-18T14:58:37.702Z,7.37
2018-08-18T15:01:11.987Z,3.10
2018-08-18T15:03:40.781Z,4.77
2018-08-18T15:06:09.390Z,3.30
2018-08-18T15:08:37.712Z,4.70
2018-08-18T15:11:06.071Z,6.63
2018-08-18T15:13:34.424Z,3.23
2018-08-18T15:16:02.633Z,4.90
2018-08-18T15:18:30.787Z,8.97
2018-08-18T15:20:59.106Z,4.63
2018-08-18T15:23:27.373Z,5.40
2018-08-18T15:25:55.580Z,4.00
2018-08-18T15:28:23.714Z,9.90
2018-08-18T15:30:53.315Z,6.30
2018-08-18T15:33:24.895Z,4.70
2018-08-18T15:35:53.028Z,4.43
2018-08-18T15:38:55.717Z,5.43
2018-08-18T15:41:24.301Z,3.63
2018-08-18T15:43:52.808Z,4.23
2018-08-18T15:46:22.041Z,6.80
2018-08-18T15:48:50.314Z,4.47
2018-08-18T15:51:18.487Z,8.27
2018-08-18T15:53:49.294Z,6.23
2018-08-18T15:56:18.203Z,6.50
2018-08-18T15:58:47.510Z,8.60
2018-08-18T16:01:15.720Z,8.60
2018-08-18T16:03:45.275Z,4.23
2018-08-18T16:06:13.513Z,4.53
2018-08-18T16:08:41.709Z,4.23
2018-08-18T16:11:10.040Z,4.97
2018-08-18T16:13:38.344Z,10.00
2018-08-18T16:16:06.494Z,5.07
2018-08-18T16:18:34.831Z,10.03
2018-08-18T16:21:09.774Z,6.20
2018-08-18T16:23:39.939Z,3.83
2018-08-18T16:26:09.191Z,5.90
2018-08-18T16:28:38.241Z,7.67
2018-08-18T16:31:06.846Z,6.20
2018-08-18T16:33:35.027Z,6.33
2018-08-18T16:36:03.270Z,9.13
2018-08-18T16:38:31.424Z,4.70
2018-08-18T16:40:59.763Z,6.80
2018-08-18T16:43:28.901Z,5.33
2018-08-18T16:46:03.046Z,8.63
2018-08-18T16:48:31.232Z,5.90
2018-08-18T16:50:59.433Z,5.10
2018-08-18T16:53:27.654Z,3.47
2018-08-18T16:55:55.954Z,5.90
2018-08-18T16:58:24.203Z,4.63
2018-08-18T17:01:00.343Z,3.30
2018-08-18T17:03:31.600Z,5.90
2018-08-18T17:06:00.737Z,4.07
2018-08-18T17:08:30.050Z,6.67
2018-08-18T17:10:58.626Z,4.13
2018-08-18T17:13:30.168Z,4.83
2018-08-18T17:15:58.340Z,5.57
2018-08-18T17:18:26.668Z,7.70
2018-08-18T17:20:58.932Z,7.17
2018-08-18T17:23:29.197Z,5.33
2018-08-18T17:25:57.383Z,6.93
2018-08-18T17:28:25.765Z,4.07
2018-08-18T17:30:54.190Z,8.33
2018-08-18T17:33:24.031Z,6.20
2018-08-18T17:35:52.711Z,9.50
2018-08-18T17:38:21.075Z,7.47
2018-08-18T17:40:49.260Z,6.23
2018-08-18T17:43:18.500Z,4.10
2018-08-18T17:45:52.043Z,11.73
2018-08-18T17:48:20.328Z,10.97
2018-08-18T17:50:48.519Z,6.60
2018-08-18T17:53:16.671Z,9.03
2018-08-18T17:55:46.023Z,8.47
2018-08-18T17:58:14.280Z,7.63
2018-08-18T18:00:42.525Z,6.07
2018-08-18T18:03:10.747Z,13.20
2018-08-18T18:05:39.521Z,8.57
2018-08-18T18:08:07.813Z,9.00
2018-08-18T18:10:37.396Z,8.47
2018-08-18T18:13:11.343Z,9.60
2018-08-18T18:15:40.680Z,8.10
2018-08-18T18:18:13.881Z,23.27
2018-08-18T18:20:43.933Z,4.70
2018-08-18T18:23:12.839Z,6.60
2018-08-18T18:25:41.220Z,10.40
2018-08-18T18:28:09.357Z,11.10
2018-08-18T18:30:37.484Z,19.13
2018-08-18T18:33:06.377Z,38.17
2018-08-18T18:35:34.679Z,37.83
2018-08-18T18:38:04.662Z,39.93
2018-08-18T18:40:34.208Z,18.40
2018-08-18T18:45:39.476Z,36.43
2018-08-18T18:48:08.737Z,75.63
2018-08-18T18:50:36.870Z,65.00
2018-08-18T18:53:05.029Z,57.50
2018-08-18T18:55:42.175Z,82.17
2018-08-18T18:58:12.861Z,55.97
2018-08-18T19:00:45.451Z,172.77
2018-08-18T19:03:13.808Z,99.30
2018-08-18T19:05:46.102Z,111.67
2018-08-18T19:08:15.999Z,79.67
2018-08-18T19:10:44.325Z,40.40
2018-08-18T19:13:13.539Z,28.80
2018-08-18T19:15:41.791Z,26.03
2018-08-18T19:18:11.227Z,23.40
2018-08-18T19:20:39.494Z,25.10
2018-08-18T19:23:13.811Z,20.70
2018-08-18T19:25:43.513Z,28.70
2018-08-18T19:28:13.229Z,19.50
2018-08-18T19:30:41.365Z,20.00
2018-08-18T19:33:10.479Z,13.50
2018-08-18T19:35:44.236Z,21.20
2018-08-18T19:38:12.891Z,16.93
2018-08-18T19:40:42.351Z,16.10
2018-08-18T19:43:15.559Z,14.50
2018-08-18T19:45:43.893Z,12.60
2018-08-18T19:48:14.360Z,14.27
2018-08-18T19:50:51.929Z,17.90
2018-08-18T19:53:21.829Z,18.60
2018-08-18T19:55:50.309Z,17.53
2018-08-18T19:58:18.512Z,13.13
2018-08-18T20:00:46.659Z,15.00
2018-08-18T20:03:15.930Z,13.87
2018-08-18T20:05:44.111Z,15.27
2018-08-18T20:08:14.604Z,13.20
2018-08-18T20:10:48.713Z,20.23
2018-08-18T20:13:18.604Z,17.20
2018-08-18T20:15:49.032Z,21.40
2018-08-18T20:18:17.694Z,23.40
2018-08-18T20:20:46.127Z,23.83
2018-08-18T20:23:16.150Z,23.03
2018-08-18T20:25:45.446Z,27.07
2018-08-18T20:28:13.912Z,24.37
2018-08-18T20:30:42.053Z,21.40
2018-08-18T20:33:10.381Z,27.77
2018-08-18T20:35:38.626Z,18.00
2018-08-18T20:38:06.971Z,23.80
2018-08-18T20:40:35.176Z,21.73
2018-08-18T20:43:03.355Z,29.63
2018-08-18T20:45:47.925Z,26.73
2018-08-18T20:48:20.246Z,23.37
2018-08-18T20:50:48.663Z,35.47
2018-08-18T20:53:17.601Z,37.73
2018-08-18T20:56:02.717Z,32.53
2018-08-18T20:58:32.583Z,39.63
2018-08-18T21:01:01.298Z,35.10
2018-08-18T21:03:44.264Z,33.60
2018-08-18T21:06:14.474Z,40.73
2018-08-18T21:08:42.590Z,35.77
2018-08-18T21:11:10.755Z,41.73
2018-08-18T21:13:39.605Z,42.70
2018-08-18T21:16:07.751Z,43.37
2018-08-18T21:18:36.327Z,41.00
2018-08-18T21:21:24.919Z,42.27
2018-08-18T21:23:53.259Z,30.70
2018-08-18T21:26:21.636Z,68.93
2018-08-18T21:28:51.099Z,31.00
2018-08-18T21:31:24.591Z,22.93
2018-08-18T21:33:52.941Z,26.23
2018-08-18T21:36:21.202Z,24.10
2018-08-18T21:38:49.326Z,26.60
2018-08-18T21:41:17.481Z,32.00
2018-08-18T21:43:45.876Z,77.27
2018-08-18T21:46:14.119Z,44.60
2018-08-18T21:48:49.889Z,29.30
2018-08-18T21:51:21.364Z,58.73
2018-08-18T21:53:49.473Z,31.90
2018-08-18T21:56:17.853Z,34.23
2018-08-18T21:58:46.016Z,27.10
2018-08-18T22:01:19.279Z,26.30
2018-08-18T22:03:48.529Z,21.47
2018-08-18T22:06:16.687Z,27.97
2018-08-18T22:08:44.962Z,28.20
2018-08-18T22:11:16.247Z,23.13
2018-08-18T22:13:50.175Z,27.73
2018-08-18T22:16:18.480Z,27.07
2018-08-18T22:19:05.283Z,19.03
2018-08-18T22:21:33.604Z,24.13
2018-08-18T22:24:02.713Z,22.73
2018-08-18T22:26:31.089Z,23.10
2018-08-18T22:29:03.501Z,29.23
2018-08-18T22:31:32.356Z,22.00
2018-08-18T22:34:02.170Z,21.33
2018-08-18T22:36:31.708Z,22.27
2018-08-18T22:39:00.351Z,19.63
2018-08-18T22:41:28.537Z,30.63
2018-08-18T22:43:57.361Z,27.60
2018-08-18T22:46:25.725Z,28.90
2018-08-18T22:48:54.154Z,25.80
2018-08-18T22:51:22.441Z,28.20
2018-08-18T22:53:52.857Z,26.20
2018-08-18T22:56:21.091Z,28.30
2018-08-18T22:58:55.417Z,20.17
2018-08-18T23:01:23.771Z,16.30
2018-08-18T23:03:52.119Z,17.80
2018-08-18T23:06:21.910Z,15.33
2018-08-18T23:08:50.085Z,16.33
2018-08-18T23:11:18.196Z,15.53
2018-08-18T23:13:46.281Z,16.50
2018-08-18T23:16:14.619Z,15.60
2018-08-18T23:18:42.889Z,18.60
2018-08-18T23:21:15.335Z,17.77
2018-08-18T23:23:43.960Z,15.37
2018-08-18T23:26:12.218Z,16.50
2018-08-18T23:28:42.855Z,15.10
2018-08-18T23:31:11.281Z,12.93
2018-08-18T23:33:39.445Z,19.13
2018-08-18T23:36:08.614Z,13.47
2018-08-18T23:38:38.351Z,10.83
2018-08-18T23:41:09.812Z,14.73
2018-08-18T23:43:38.073Z,10.77
2018-08-18T23:46:06.237Z,13.10
2018-08-18T23:48:34.448Z,11.23
2018-08-18T23:51:02.669Z,10.73
2018-08-18T23:53:30.810Z,13.97
2018-08-18T23:55:59.999Z,11.97
2018-08-18T23:58:29.217Z,10.83
